Terminal Aerodrome Forecast
Issued by NWS Caribou, ME

Current Version | Previous Version | Text Only | Print | Product List | Glossary On
Versions: 1 2 3 4 5 6 7 8 9 10 11 12 13
000 FTUS41 KCAR 242323 AAA TAFCAR TAF AMD KCAR 242323Z 2423/2524 17008KT P6SM SCT050 FM250300 17006KT P6SM BKN040 FM250600 17006KT P6SM BKN028 FM250800 18007KT P6SM BKN015 FM251030 18008KT P6SM BKN008 FM251400 18007KT P6SM BKN022 FM251600 19009KT P6SM BKN035 FM252000 20008KT 3SM SHRA OVC028 FM252300 18006KT P6SM BKN035=

USA.gov is the U.S. government's official web portal to all federal, state and local government web resources and services.